Terminal Aerodrome Forecast
Issued by NWS

Home | Current Version | Previous Version | Text Only | Print | Product List | Glossary On
Versions: 1 2 3 4 5 6 7 8 9 10 11 12 13 14
000
FTUS44 KLIX 051741
TAFGPT
TAF
KGPT 051741Z 0518/0618 15006KT P6SM VCTS SCT025CB BKN250
      TEMPO 0520/0524 VRB25G35KT 1SM TSRA BKN020CB OVC060
     FM060200 19007KT P6SM BKN150
     FM061400 18008KT P6SM SCT028 BKN200=

USA.gov is the U.S. government's official web portal to all federal, state and local government web resources and services.